sensor_id;sensor_type;location;lat;lon;timestamp;P1;durP1;ratioP1;P2;durP2;ratioP2
39486;SDS011;25173;50.430;18.926;2022-07-23T00:00:03;16.55;;;8.90;;
39486;SDS011;25173;50.430;18.926;2022-07-23T00:03:06;13.05;;;8.95;;
39486;SDS011;25173;50.430;18.926;2022-07-23T00:06:07;11.07;;;9.98;;
39486;SDS011;25173;50.430;18.926;2022-07-23T00:09:08;10.95;;;8.68;;
39486;SDS011;25173;50.430;18.926;2022-07-23T00:12:08;9.05;;;8.00;;
39486;SDS011;25173;50.430;18.926;2022-07-23T00:15:09;10.65;;;8.85;;
39486;SDS011;25173;50.430;18.926;2022-07-23T00:18:11;20.63;;;8.82;;
39486;SDS011;25173;50.430;18.926;2022-07-23T00:21:12;10.45;;;8.32;;
39486;SDS011;25173;50.430;18.926;2022-07-23T00:24:12;12.57;;;8.80;;
39486;SDS011;25173;50.430;18.926;2022-07-23T00:27:13;46.70;;;11.27;;
39486;SDS011;25173;50.430;18.926;2022-07-23T00:30:14;30.13;;;9.77;;
39486;SDS011;25173;50.430;18.926;2022-07-23T00:33:14;21.15;;;9.00;;
39486;SDS011;25173;50.430;18.926;2022-07-23T00:36:15;18.40;;;9.18;;
39486;SDS011;25173;50.430;18.926;2022-07-23T00:39:16;14.43;;;8.45;;
39486;SDS011;25173;50.430;18.926;2022-07-23T00:42:17;10.32;;;9.18;;
39486;SDS011;25173;50.430;18.926;2022-07-23T00:45:18;16.33;;;9.13;;
39486;SDS011;25173;50.430;18.926;2022-07-23T00:48:19;16.15;;;9.07;;
39486;SDS011;25173;50.430;18.926;2022-07-23T00:51:20;8.80;;;7.90;;
39486;SDS011;25173;50.430;18.926;2022-07-23T00:54:22;10.23;;;8.07;;
39486;SDS011;25173;50.430;18.926;2022-07-23T00:57:25;9.82;;;8.82;;
39486;SDS011;25173;50.430;18.926;2022-07-23T01:00:26;12.70;;;9.07;;
39486;SDS011;25173;50.430;18.926;2022-07-23T01:03:26;9.15;;;8.25;;
39486;SDS011;25173;50.430;18.926;2022-07-23T01:06:27;10.45;;;8.90;;
39486;SDS011;25173;50.430;18.926;2022-07-23T01:09:28;13.38;;;10.38;;
39486;SDS011;25173;50.430;18.926;2022-07-23T01:12:29;11.48;;;9.40;;
39486;SDS011;25173;50.430;18.926;2022-07-23T01:15:30;13.73;;;10.27;;
39486;SDS011;25173;50.430;18.926;2022-07-23T01:18:32;13.77;;;9.95;;
39486;SDS011;25173;50.430;18.926;2022-07-23T01:21:34;10.52;;;9.43;;
39486;SDS011;25173;50.430;18.926;2022-07-23T01:24:37;13.75;;;9.80;;
39486;SDS011;25173;50.430;18.926;2022-07-23T01:27:39;14.75;;;9.63;;
39486;SDS011;25173;50.430;18.926;2022-07-23T01:30:41;12.40;;;9.68;;
39486;SDS011;25173;50.430;18.926;2022-07-23T01:33:42;10.45;;;9.45;;
39486;SDS011;25173;50.430;18.926;2022-07-23T01:36:43;12.45;;;9.43;;
39486;SDS011;25173;50.430;18.926;2022-07-23T01:39:45;15.65;;;8.93;;
39486;SDS011;25173;50.430;18.926;2022-07-23T01:42:46;12.38;;;9.38;;
39486;SDS011;25173;50.430;18.926;2022-07-23T01:45:48;18.92;;;9.75;;
39486;SDS011;25173;50.430;18.926;2022-07-23T01:48:49;11.57;;;9.70;;
39486;SDS011;25173;50.430;18.926;2022-07-23T01:52:08;12.55;;;9.48;;
39486;SDS011;25173;50.430;18.926;2022-07-23T01:55:23;13.32;;;10.25;;
39486;SDS011;25173;50.430;18.926;2022-07-23T01:58:24;10.30;;;9.10;;
39486;SDS011;25173;50.430;18.926;2022-07-23T02:01:26;11.25;;;9.43;;
39486;SDS011;25173;50.430;18.926;2022-07-23T02:04:27;12.75;;;8.93;;
39486;SDS011;25173;50.430;18.926;2022-07-23T02:07:29;14.90;;;9.05;;
39486;SDS011;25173;50.430;18.926;2022-07-23T02:10:30;20.27;;;10.52;;
39486;SDS011;25173;50.430;18.926;2022-07-23T02:13:30;14.20;;;10.18;;
39486;SDS011;25173;50.430;18.926;2022-07-23T02:16:31;12.73;;;9.45;;
39486;SDS011;25173;50.430;18.926;2022-07-23T02:19:36;10.23;;;9.15;;
39486;SDS011;25173;50.430;18.926;2022-07-23T02:22:36;11.50;;;9.60;;
39486;SDS011;25173;50.430;18.926;2022-07-23T02:25:38;12.40;;;10.05;;
39486;SDS011;25173;50.430;18.926;2022-07-23T02:28:38;15.13;;;11.57;;
39486;SDS011;25173;50.430;18.926;2022-07-23T02:31:40;15.90;;;12.52;;
39486;SDS011;25173;50.430;18.926;2022-07-23T02:34:42;14.75;;;9.50;;
39486;SDS011;25173;50.430;18.926;2022-07-23T02:37:44;13.55;;;11.93;;
39486;SDS011;25173;50.430;18.926;2022-07-23T02:40:44;19.35;;;13.30;;
39486;SDS011;25173;50.430;18.926;2022-07-23T02:43:45;16.73;;;9.93;;
39486;SDS011;25173;50.430;18.926;2022-07-23T02:46:47;18.75;;;10.57;;
39486;SDS011;25173;50.430;18.926;2022-07-23T02:49:48;15.88;;;10.68;;
39486;SDS011;25173;50.430;18.926;2022-07-23T02:52:49;15.20;;;10.30;;
39486;SDS011;25173;50.430;18.926;2022-07-23T02:55:50;17.85;;;10.95;;
39486;SDS011;25173;50.430;18.926;2022-07-23T02:58:51;16.00;;;9.70;;
39486;SDS011;25173;50.430;18.926;2022-07-23T03:01:52;18.35;;;11.05;;
39486;SDS011;25173;50.430;18.926;2022-07-23T03:04:53;16.80;;;11.65;;
39486;SDS011;25173;50.430;18.926;2022-07-23T03:07:54;19.95;;;11.07;;
39486;SDS011;25173;50.430;18.926;2022-07-23T03:10:54;17.60;;;12.30;;
39486;SDS011;25173;50.430;18.926;2022-07-23T03:13:55;16.70;;;11.93;;
39486;SDS011;25173;50.430;18.926;2022-07-23T03:16:56;74.35;;;15.80;;
39486;SDS011;25173;50.430;18.926;2022-07-23T03:19:57;40.95;;;14.30;;
39486;SDS011;25173;50.430;18.926;2022-07-23T03:22:58;32.70;;;13.95;;
39486;SDS011;25173;50.430;18.926;2022-07-23T03:25:58;41.58;;;13.93;;
39486;SDS011;25173;50.430;18.926;2022-07-23T03:28:59;45.88;;;14.38;;
39486;SDS011;25173;50.430;18.926;2022-07-23T03:32:03;36.25;;;14.07;;
39486;SDS011;25173;50.430;18.926;2022-07-23T03:35:04;35.72;;;12.32;;
39486;SDS011;25173;50.430;18.926;2022-07-23T03:38:06;27.25;;;12.02;;
39486;SDS011;25173;50.430;18.926;2022-07-23T03:41:07;13.82;;;10.80;;
39486;SDS011;25173;50.430;18.926;2022-07-23T03:44:07;24.67;;;12.20;;
39486;SDS011;25173;50.430;18.926;2022-07-23T03:47:08;25.00;;;12.15;;
39486;SDS011;25173;50.430;18.926;2022-07-23T03:50:09;21.02;;;11.82;;
39486;SDS011;25173;50.430;18.926;2022-07-23T03:53:10;25.50;;;13.20;;
39486;SDS011;25173;50.430;18.926;2022-07-23T03:56:11;27.17;;;12.88;;
39486;SDS011;25173;50.430;18.926;2022-07-23T03:59:12;48.22;;;15.07;;
39486;SDS011;25173;50.430;18.926;2022-07-23T04:02:12;36.05;;;14.70;;
39486;SDS011;25173;50.430;18.926;2022-07-23T04:05:13;40.35;;;14.02;;
39486;SDS011;25173;50.430;18.926;2022-07-23T04:08:17;52.75;;;15.57;;
39486;SDS011;25173;50.430;18.926;2022-07-23T04:11:23;23.58;;;12.93;;
39486;SDS011;25173;50.430;18.926;2022-07-23T04:14:23;22.90;;;14.05;;
39486;SDS011;25173;50.430;18.926;2022-07-23T04:17:24;23.60;;;13.88;;
39486;SDS011;25173;50.430;18.926;2022-07-23T04:20:25;26.35;;;13.60;;
39486;SDS011;25173;50.430;18.926;2022-07-23T04:23:31;21.42;;;12.65;;
39486;SDS011;25173;50.430;18.926;2022-07-23T04:26:31;16.92;;;13.23;;
39486;SDS011;25173;50.430;18.926;2022-07-23T04:29:32;18.85;;;14.07;;
39486;SDS011;25173;50.430;18.926;2022-07-23T04:32:33;20.60;;;14.85;;
39486;SDS011;25173;50.430;18.926;2022-07-23T04:35:35;27.92;;;14.85;;
39486;SDS011;25173;50.430;18.926;2022-07-23T04:38:46;20.73;;;14.80;;
39486;SDS011;25173;50.430;18.926;2022-07-23T04:41:46;27.15;;;15.55;;
39486;SDS011;25173;50.430;18.926;2022-07-23T04:44:48;25.10;;;15.80;;
39486;SDS011;25173;50.430;18.926;2022-07-23T04:47:49;22.65;;;18.27;;
39486;SDS011;25173;50.430;18.926;2022-07-23T04:50:50;25.33;;;18.20;;
39486;SDS011;25173;50.430;18.926;2022-07-23T04:54:02;31.50;;;16.27;;
39486;SDS011;25173;50.430;18.926;2022-07-23T04:57:03;22.80;;;16.48;;
39486;SDS011;25173;50.430;18.926;2022-07-23T05:00:05;22.08;;;16.58;;
39486;SDS011;25173;50.430;18.926;2022-07-23T05:03:07;20.52;;;17.48;;
39486;SDS011;25173;50.430;18.926;2022-07-23T05:06:08;22.83;;;16.10;;
39486;SDS011;25173;50.430;18.926;2022-07-23T05:09:09;20.90;;;15.32;;
39486;SDS011;25173;50.430;18.926;2022-07-23T05:12:09;20.05;;;16.15;;
39486;SDS011;25173;50.430;18.926;2022-07-23T05:15:11;24.23;;;15.38;;
39486;SDS011;25173;50.430;18.926;2022-07-23T05:18:12;19.00;;;14.77;;
39486;SDS011;25173;50.430;18.926;2022-07-23T05:21:13;16.58;;;13.27;;
39486;SDS011;25173;50.430;18.926;2022-07-23T05:24:14;17.95;;;13.95;;
39486;SDS011;25173;50.430;18.926;2022-07-23T05:27:15;18.45;;;13.13;;
39486;SDS011;25173;50.430;18.926;2022-07-23T05:30:16;16.70;;;13.52;;
39486;SDS011;25173;50.430;18.926;2022-07-23T05:33:19;18.27;;;13.05;;
39486;SDS011;25173;50.430;18.926;2022-07-23T05:36:20;14.57;;;12.40;;
39486;SDS011;25173;50.430;18.926;2022-07-23T05:39:27;17.88;;;12.88;;
39486;SDS011;25173;50.430;18.926;2022-07-23T05:42:28;15.15;;;13.55;;
39486;SDS011;25173;50.430;18.926;2022-07-23T05:45:29;20.85;;;12.52;;
39486;SDS011;25173;50.430;18.926;2022-07-23T05:48:30;16.38;;;11.55;;
39486;SDS011;25173;50.430;18.926;2022-07-23T05:51:35;17.45;;;11.25;;
39486;SDS011;25173;50.430;18.926;2022-07-23T05:54:37;20.65;;;11.82;;
39486;SDS011;25173;50.430;18.926;2022-07-23T05:57:37;18.17;;;11.85;;
39486;SDS011;25173;50.430;18.926;2022-07-23T06:00:38;14.57;;;10.98;;
39486;SDS011;25173;50.430;18.926;2022-07-23T06:03:39;18.02;;;10.93;;
39486;SDS011;25173;50.430;18.926;2022-07-23T06:06:40;12.95;;;10.25;;
39486;SDS011;25173;50.430;18.926;2022-07-23T06:09:43;10.73;;;9.63;;
39486;SDS011;25173;50.430;18.926;2022-07-23T06:12:44;14.35;;;9.20;;
39486;SDS011;25173;50.430;18.926;2022-07-23T06:15:44;11.50;;;9.15;;
39486;SDS011;25173;50.430;18.926;2022-07-23T06:18:45;15.13;;;9.50;;
39486;SDS011;25173;50.430;18.926;2022-07-23T06:21:46;14.50;;;11.10;;
39486;SDS011;25173;50.430;18.926;2022-07-23T06:24:47;11.40;;;10.15;;
39486;SDS011;25173;50.430;18.926;2022-07-23T06:27:48;13.55;;;9.50;;
39486;SDS011;25173;50.430;18.926;2022-07-23T06:30:50;14.77;;;9.80;;
39486;SDS011;25173;50.430;18.926;2022-07-23T06:33:50;13.15;;;8.93;;
39486;SDS011;25173;50.430;18.926;2022-07-23T06:36:51;13.18;;;8.90;;
39486;SDS011;25173;50.430;18.926;2022-07-23T06:39:52;8.82;;;7.93;;
39486;SDS011;25173;50.430;18.926;2022-07-23T06:42:53;13.10;;;8.75;;
39486;SDS011;25173;50.430;18.926;2022-07-23T06:45:56;10.73;;;8.82;;
39486;SDS011;25173;50.430;18.926;2022-07-23T06:48:58;12.70;;;8.48;;
39486;SDS011;25173;50.430;18.926;2022-07-23T06:51:59;11.13;;;7.97;;
39486;SDS011;25173;50.430;18.926;2022-07-23T06:55:00;10.85;;;7.97;;
39486;SDS011;25173;50.430;18.926;2022-07-23T06:58:01;11.63;;;7.65;;
39486;SDS011;25173;50.430;18.926;2022-07-23T07:01:01;10.52;;;6.88;;
39486;SDS011;25173;50.430;18.926;2022-07-23T07:04:02;11.82;;;7.70;;
39486;SDS011;25173;50.430;18.926;2022-07-23T07:07:03;10.07;;;7.18;;
39486;SDS011;25173;50.430;18.926;2022-07-23T07:10:04;9.25;;;7.22;;
39486;SDS011;25173;50.430;18.926;2022-07-23T07:13:05;10.13;;;6.85;;
39486;SDS011;25173;50.430;18.926;2022-07-23T07:16:06;10.98;;;6.90;;
39486;SDS011;25173;50.430;18.926;2022-07-23T07:19:06;9.98;;;6.68;;
39486;SDS011;25173;50.430;18.926;2022-07-23T07:22:07;12.65;;;7.00;;
39486;SDS011;25173;50.430;18.926;2022-07-23T07:25:08;9.45;;;6.32;;
39486;SDS011;25173;50.430;18.926;2022-07-23T07:28:09;9.40;;;6.55;;
39486;SDS011;25173;50.430;18.926;2022-07-23T07:31:10;8.10;;;6.07;;
39486;SDS011;25173;50.430;18.926;2022-07-23T07:34:10;10.52;;;5.75;;
39486;SDS011;25173;50.430;18.926;2022-07-23T07:37:11;8.70;;;5.97;;
39486;SDS011;25173;50.430;18.926;2022-07-23T07:40:12;10.82;;;6.60;;
39486;SDS011;25173;50.430;18.926;2022-07-23T07:43:12;8.30;;;6.20;;
39486;SDS011;25173;50.430;18.926;2022-07-23T07:46:13;8.30;;;6.60;;
39486;SDS011;25173;50.430;18.926;2022-07-23T07:49:14;7.60;;;6.18;;
39486;SDS011;25173;50.430;18.926;2022-07-23T07:52:16;8.23;;;6.20;;
39486;SDS011;25173;50.430;18.926;2022-07-23T07:55:17;10.48;;;7.15;;
39486;SDS011;25173;50.430;18.926;2022-07-23T07:58:18;10.70;;;6.38;;
39486;SDS011;25173;50.430;18.926;2022-07-23T08:01:18;11.73;;;7.00;;
39486;SDS011;25173;50.430;18.926;2022-07-23T08:04:22;10.45;;;6.72;;
39486;SDS011;25173;50.430;18.926;2022-07-23T08:07:23;10.40;;;7.13;;
39486;SDS011;25173;50.430;18.926;2022-07-23T08:10:24;10.70;;;6.45;;
39486;SDS011;25173;50.430;18.926;2022-07-23T08:13:27;9.55;;;6.40;;
39486;SDS011;25173;50.430;18.926;2022-07-23T08:16:28;8.75;;;6.65;;
39486;SDS011;25173;50.430;18.926;2022-07-23T08:19:29;11.02;;;6.57;;
39486;SDS011;25173;50.430;18.926;2022-07-23T08:25:53;12.30;;;6.85;;
39486;SDS011;25173;50.430;18.926;2022-07-23T08:28:54;9.75;;;6.95;;
39486;SDS011;25173;50.430;18.926;2022-07-23T08:31:55;13.45;;;7.28;;
39486;SDS011;25173;50.430;18.926;2022-07-23T08:34:55;9.30;;;6.95;;
39486;SDS011;25173;50.430;18.926;2022-07-23T08:37:56;13.32;;;8.38;;
39486;SDS011;25173;50.430;18.926;2022-07-23T08:40:58;14.77;;;7.57;;
39486;SDS011;25173;50.430;18.926;2022-07-23T08:43:58;16.75;;;8.43;;
39486;SDS011;25173;50.430;18.926;2022-07-23T08:47:01;11.10;;;6.95;;
39486;SDS011;25173;50.430;18.926;2022-07-23T08:50:02;11.20;;;8.18;;
39486;SDS011;25173;50.430;18.926;2022-07-23T08:53:06;17.77;;;8.15;;
39486;SDS011;25173;50.430;18.926;2022-07-23T08:56:08;6.95;;;5.93;;
39486;SDS011;25173;50.430;18.926;2022-07-23T08:59:09;8.15;;;6.63;;
39486;SDS011;25173;50.430;18.926;2022-07-23T09:02:13;11.90;;;6.95;;
39486;SDS011;25173;50.430;18.926;2022-07-23T09:05:14;10.68;;;6.55;;
39486;SDS011;25173;50.430;18.926;2022-07-23T09:08:16;7.50;;;6.43;;
39486;SDS011;25173;50.430;18.926;2022-07-23T09:11:21;7.13;;;5.85;;
39486;SDS011;25173;50.430;18.926;2022-07-23T09:14:35;7.50;;;6.30;;
39486;SDS011;25173;50.430;18.926;2022-07-23T09:17:38;8.18;;;6.90;;
39486;SDS011;25173;50.430;18.926;2022-07-23T09:20:40;7.35;;;6.65;;
39486;SDS011;25173;50.430;18.926;2022-07-23T09:23:42;11.65;;;6.80;;
39486;SDS011;25173;50.430;18.926;2022-07-23T09:26:48;12.20;;;7.95;;
39486;SDS011;25173;50.430;18.926;2022-07-23T09:29:59;16.25;;;8.00;;
39486;SDS011;25173;50.430;18.926;2022-07-23T09:36:06;7.35;;;6.65;;
39486;SDS011;25173;50.430;18.926;2022-07-23T09:39:09;9.43;;;7.10;;
39486;SDS011;25173;50.430;18.926;2022-07-23T09:42:21;12.98;;;7.03;;
39486;SDS011;25173;50.430;18.926;2022-07-23T09:45:23;12.85;;;7.10;;
39486;SDS011;25173;50.430;18.926;2022-07-23T09:48:24;20.98;;;7.72;;
39486;SDS011;25173;50.430;18.926;2022-07-23T09:51:25;11.48;;;7.47;;
39486;SDS011;25173;50.430;18.926;2022-07-23T09:54:30;13.95;;;8.13;;
39486;SDS011;25173;50.430;18.926;2022-07-23T09:57:33;15.57;;;7.37;;
39486;SDS011;25173;50.430;18.926;2022-07-23T10:00:34;16.52;;;7.97;;
39486;SDS011;25173;50.430;18.926;2022-07-23T10:03:36;11.15;;;7.72;;
39486;SDS011;25173;50.430;18.926;2022-07-23T10:07:09;9.10;;;8.02;;
39486;SDS011;25173;50.430;18.926;2022-07-23T10:10:29;9.65;;;7.32;;
39486;SDS011;25173;50.430;18.926;2022-07-23T10:14:04;12.05;;;7.97;;
39486;SDS011;25173;50.430;18.926;2022-07-23T10:17:29;10.33;;;7.07;;
39486;SDS011;25173;50.430;18.926;2022-07-23T10:20:30;12.35;;;7.25;;
39486;SDS011;25173;50.430;18.926;2022-07-23T10:23:33;11.02;;;7.72;;
39486;SDS011;25173;50.430;18.926;2022-07-23T10:26:58;14.73;;;8.02;;
39486;SDS011;25173;50.430;18.926;2022-07-23T10:33:46;15.07;;;7.60;;
39486;SDS011;25173;50.430;18.926;2022-07-23T10:37:02;10.88;;;8.13;;
39486;SDS011;25173;50.430;18.926;2022-07-23T10:40:24;10.55;;;7.18;;
39486;SDS011;25173;50.430;18.926;2022-07-23T10:43:26;7.95;;;6.57;;
39486;SDS011;25173;50.430;18.926;2022-07-23T10:46:28;9.60;;;7.57;;
39486;SDS011;25173;50.430;18.926;2022-07-23T10:49:37;8.48;;;6.55;;
39486;SDS011;25173;50.430;18.926;2022-07-23T10:52:39;13.77;;;6.82;;
39486;SDS011;25173;50.430;18.926;2022-07-23T10:55:42;9.02;;;7.07;;
39486;SDS011;25173;50.430;18.926;2022-07-23T10:58:45;8.63;;;6.65;;
39486;SDS011;25173;50.430;18.926;2022-07-23T11:01:48;9.23;;;7.38;;
39486;SDS011;25173;50.430;18.926;2022-07-23T11:04:50;8.25;;;7.22;;
39486;SDS011;25173;50.430;18.926;2022-07-23T11:14:05;14.70;;;7.05;;
39486;SDS011;25173;50.430;18.926;2022-07-23T11:17:18;10.43;;;6.47;;
39486;SDS011;25173;50.430;18.926;2022-07-23T11:20:20;11.07;;;7.35;;
39486;SDS011;25173;50.430;18.926;2022-07-23T11:23:23;13.82;;;7.15;;
39486;SDS011;25173;50.430;18.926;2022-07-23T11:26:59;7.60;;;6.90;;
39486;SDS011;25173;50.430;18.926;2022-07-23T11:30:01;7.47;;;6.68;;
39486;SDS011;25173;50.430;18.926;2022-07-23T11:36:09;7.82;;;6.32;;
39486;SDS011;25173;50.430;18.926;2022-07-23T11:39:09;8.32;;;6.65;;
39486;SDS011;25173;50.430;18.926;2022-07-23T11:42:10;7.68;;;6.82;;
39486;SDS011;25173;50.430;18.926;2022-07-23T11:45:19;8.05;;;6.82;;
39486;SDS011;25173;50.430;18.926;2022-07-23T11:48:21;13.23;;;6.30;;
39486;SDS011;25173;50.430;18.926;2022-07-23T11:51:25;11.40;;;6.78;;
39486;SDS011;25173;50.430;18.926;2022-07-23T11:54:27;11.63;;;5.90;;
39486;SDS011;25173;50.430;18.926;2022-07-23T11:57:32;8.70;;;6.50;;
39486;SDS011;25173;50.430;18.926;2022-07-23T12:00:35;9.93;;;6.70;;
39486;SDS011;25173;50.430;18.926;2022-07-23T12:03:35;10.88;;;7.03;;
39486;SDS011;25173;50.430;18.926;2022-07-23T12:06:39;8.90;;;6.57;;
39486;SDS011;25173;50.430;18.926;2022-07-23T12:09:43;9.50;;;6.53;;
39486;SDS011;25173;50.430;18.926;2022-07-23T12:12:53;12.48;;;6.53;;
39486;SDS011;25173;50.430;18.926;2022-07-23T12:15:57;7.38;;;6.68;;
39486;SDS011;25173;50.430;18.926;2022-07-23T12:19:02;11.38;;;6.70;;
39486;SDS011;25173;50.430;18.926;2022-07-23T12:22:33;8.35;;;6.72;;
39486;SDS011;25173;50.430;18.926;2022-07-23T12:25:38;8.95;;;5.97;;
39486;SDS011;25173;50.430;18.926;2022-07-23T12:28:51;8.23;;;6.72;;
39486;SDS011;25173;50.430;18.926;2022-07-23T12:32:00;10.77;;;6.90;;
39486;SDS011;25173;50.430;18.926;2022-07-23T12:35:05;10.43;;;6.07;;
39486;SDS011;25173;50.430;18.926;2022-07-23T12:38:09;34.92;;;7.88;;
39486;SDS011;25173;50.430;18.926;2022-07-23T12:41:20;11.07;;;6.93;;
39486;SDS011;25173;50.430;18.926;2022-07-23T12:44:30;7.20;;;6.50;;
39486;SDS011;25173;50.430;18.926;2022-07-23T12:47:32;10.15;;;6.70;;
39486;SDS011;25173;50.430;18.926;2022-07-23T12:53:56;11.82;;;6.93;;
39486;SDS011;25173;50.430;18.926;2022-07-23T12:56:58;10.30;;;6.68;;
39486;SDS011;25173;50.430;18.926;2022-07-23T13:00:08;8.65;;;6.45;;
39486;SDS011;25173;50.430;18.926;2022-07-23T13:03:19;16.52;;;6.95;;
39486;SDS011;25173;50.430;18.926;2022-07-23T13:06:21;33.33;;;8.10;;
39486;SDS011;25173;50.430;18.926;2022-07-23T13:09:23;12.27;;;6.38;;
39486;SDS011;25173;50.430;18.926;2022-07-23T13:12:25;10.40;;;6.65;;
39486;SDS011;25173;50.430;18.926;2022-07-23T13:15:26;6.80;;;6.28;;
39486;SDS011;25173;50.430;18.926;2022-07-23T13:18:27;11.80;;;7.13;;
39486;SDS011;25173;50.430;18.926;2022-07-23T13:21:28;8.48;;;6.43;;
39486;SDS011;25173;50.430;18.926;2022-07-23T13:24:29;12.68;;;6.35;;
39486;SDS011;25173;50.430;18.926;2022-07-23T13:27:29;11.15;;;6.57;;
39486;SDS011;25173;50.430;18.926;2022-07-23T13:30:32;8.32;;;6.38;;
39486;SDS011;25173;50.430;18.926;2022-07-23T13:33:33;7.47;;;6.70;;
39486;SDS011;25173;50.430;18.926;2022-07-23T13:36:38;8.00;;;6.30;;
39486;SDS011;25173;50.430;18.926;2022-07-23T13:39:44;23.77;;;7.43;;
39486;SDS011;25173;50.430;18.926;2022-07-23T13:42:45;8.00;;;6.03;;
39486;SDS011;25173;50.430;18.926;2022-07-23T13:45:46;7.72;;;6.32;;
39486;SDS011;25173;50.430;18.926;2022-07-23T13:48:47;15.77;;;8.20;;
39486;SDS011;25173;50.430;18.926;2022-07-23T13:51:48;54.60;;;10.20;;
39486;SDS011;25173;50.430;18.926;2022-07-23T13:54:48;44.13;;;8.20;;
39486;SDS011;25173;50.430;18.926;2022-07-23T13:57:49;24.02;;;6.93;;
39486;SDS011;25173;50.430;18.926;2022-07-23T14:00:51;17.20;;;6.43;;
39486;SDS011;25173;50.430;18.926;2022-07-23T14:03:53;16.50;;;6.65;;
39486;SDS011;25173;50.430;18.926;2022-07-23T14:06:53;17.58;;;7.60;;
39486;SDS011;25173;50.430;18.926;2022-07-23T14:09:54;16.73;;;6.18;;
39486;SDS011;25173;50.430;18.926;2022-07-23T14:12:55;13.45;;;7.50;;
39486;SDS011;25173;50.430;18.926;2022-07-23T14:15:57;12.73;;;7.47;;
39486;SDS011;25173;50.430;18.926;2022-07-23T14:18:58;18.45;;;7.90;;
39486;SDS011;25173;50.430;18.926;2022-07-23T14:21:59;14.05;;;7.53;;
39486;SDS011;25173;50.430;18.926;2022-07-23T14:24:59;9.75;;;7.82;;
39486;SDS011;25173;50.430;18.926;2022-07-23T14:28:00;14.38;;;8.95;;
39486;SDS011;25173;50.430;18.926;2022-07-23T14:31:01;10.63;;;8.00;;
39486;SDS011;25173;50.430;18.926;2022-07-23T14:34:02;10.55;;;8.93;;
39486;SDS011;25173;50.430;18.926;2022-07-23T14:37:03;15.95;;;9.63;;
39486;SDS011;25173;50.430;18.926;2022-07-23T14:40:04;14.15;;;8.65;;
39486;SDS011;25173;50.430;18.926;2022-07-23T14:43:05;13.65;;;9.63;;
39486;SDS011;25173;50.430;18.926;2022-07-23T14:46:06;12.07;;;9.55;;
39486;SDS011;25173;50.430;18.926;2022-07-23T14:49:06;12.10;;;10.05;;
39486;SDS011;25173;50.430;18.926;2022-07-23T14:52:07;12.82;;;8.35;;
39486;SDS011;25173;50.430;18.926;2022-07-23T14:55:08;14.65;;;9.70;;
39486;SDS011;25173;50.430;18.926;2022-07-23T14:58:09;15.95;;;11.20;;
39486;SDS011;25173;50.430;18.926;2022-07-23T15:01:10;15.68;;;10.55;;
39486;SDS011;25173;50.430;18.926;2022-07-23T15:04:10;22.20;;;11.48;;
39486;SDS011;25173;50.430;18.926;2022-07-23T15:07:11;15.25;;;9.93;;
39486;SDS011;25173;50.430;18.926;2022-07-23T15:10:12;14.13;;;10.18;;
39486;SDS011;25173;50.430;18.926;2022-07-23T15:13:12;13.65;;;8.85;;
39486;SDS011;25173;50.430;18.926;2022-07-23T15:16:13;11.55;;;9.05;;
39486;SDS011;25173;50.430;18.926;2022-07-23T15:19:14;11.75;;;9.60;;
39486;SDS011;25173;50.430;18.926;2022-07-23T15:22:15;10.23;;;9.13;;
39486;SDS011;25173;50.430;18.926;2022-07-23T15:25:16;12.18;;;9.32;;
39486;SDS011;25173;50.430;18.926;2022-07-23T15:28:16;16.75;;;9.02;;
39486;SDS011;25173;50.430;18.926;2022-07-23T15:31:17;10.75;;;9.65;;
39486;SDS011;25173;50.430;18.926;2022-07-23T15:34:18;12.95;;;8.88;;
39486;SDS011;25173;50.430;18.926;2022-07-23T15:37:18;10.85;;;9.75;;
39486;SDS011;25173;50.430;18.926;2022-07-23T15:40:19;13.77;;;8.68;;
39486;SDS011;25173;50.430;18.926;2022-07-23T15:43:20;11.20;;;9.50;;
39486;SDS011;25173;50.430;18.926;2022-07-23T15:46:22;14.75;;;10.75;;
39486;SDS011;25173;50.430;18.926;2022-07-23T15:49:23;14.95;;;11.32;;
39486;SDS011;25173;50.430;18.926;2022-07-23T15:52:24;11.43;;;9.57;;
39486;SDS011;25173;50.430;18.926;2022-07-23T15:55:25;16.67;;;9.75;;
39486;SDS011;25173;50.430;18.926;2022-07-23T15:58:26;16.77;;;15.02;;
39486;SDS011;25173;50.430;18.926;2022-07-23T16:01:28;22.75;;;16.05;;
39486;SDS011;25173;50.430;18.926;2022-07-23T16:04:29;11.80;;;8.70;;
39486;SDS011;25173;50.430;18.926;2022-07-23T16:07:30;17.58;;;11.93;;
39486;SDS011;25173;50.430;18.926;2022-07-23T16:10:32;20.98;;;18.17;;
39486;SDS011;25173;50.430;18.926;2022-07-23T16:13:32;14.32;;;10.52;;
39486;SDS011;25173;50.430;18.926;2022-07-23T16:16:33;21.58;;;14.15;;
39486;SDS011;25173;50.430;18.926;2022-07-23T16:19:34;14.68;;;10.77;;
39486;SDS011;25173;50.430;18.926;2022-07-23T16:22:35;10.10;;;8.88;;
39486;SDS011;25173;50.430;18.926;2022-07-23T16:25:36;10.70;;;9.48;;
39486;SDS011;25173;50.430;18.926;2022-07-23T16:28:37;11.57;;;9.75;;
39486;SDS011;25173;50.430;18.926;2022-07-23T16:31:38;21.83;;;10.25;;
39486;SDS011;25173;50.430;18.926;2022-07-23T16:34:39;10.55;;;9.38;;
39486;SDS011;25173;50.430;18.926;2022-07-23T16:37:40;11.77;;;9.40;;
39486;SDS011;25173;50.430;18.926;2022-07-23T16:40:42;17.38;;;9.95;;
39486;SDS011;25173;50.430;18.926;2022-07-23T16:43:42;9.63;;;8.63;;
39486;SDS011;25173;50.430;18.926;2022-07-23T16:46:43;14.85;;;9.07;;
39486;SDS011;25173;50.430;18.926;2022-07-23T16:49:46;15.38;;;9.50;;
39486;SDS011;25173;50.430;18.926;2022-07-23T16:52:47;13.63;;;10.00;;
39486;SDS011;25173;50.430;18.926;2022-07-23T16:55:48;11.40;;;10.20;;
39486;SDS011;25173;50.430;18.926;2022-07-23T16:58:49;13.23;;;9.88;;
39486;SDS011;25173;50.430;18.926;2022-07-23T17:01:50;15.50;;;12.02;;
39486;SDS011;25173;50.430;18.926;2022-07-23T17:04:51;14.07;;;11.30;;
39486;SDS011;25173;50.430;18.926;2022-07-23T17:07:52;13.48;;;9.73;;
39486;SDS011;25173;50.430;18.926;2022-07-23T17:10:56;18.73;;;10.25;;
39486;SDS011;25173;50.430;18.926;2022-07-23T17:13:56;14.90;;;11.10;;
39486;SDS011;25173;50.430;18.926;2022-07-23T17:16:57;20.63;;;12.88;;
39486;SDS011;25173;50.430;18.926;2022-07-23T17:19:58;18.15;;;11.68;;
39486;SDS011;25173;50.430;18.926;2022-07-23T17:22:59;22.58;;;12.00;;
39486;SDS011;25173;50.430;18.926;2022-07-23T17:25:59;13.20;;;11.00;;
39486;SDS011;25173;50.430;18.926;2022-07-23T17:29:01;13.65;;;11.10;;
39486;SDS011;25173;50.430;18.926;2022-07-23T17:32:02;15.20;;;10.00;;
39486;SDS011;25173;50.430;18.926;2022-07-23T17:35:04;16.85;;;10.60;;
39486;SDS011;25173;50.430;18.926;2022-07-23T17:38:05;12.75;;;10.50;;
39486;SDS011;25173;50.430;18.926;2022-07-23T17:41:07;12.07;;;10.18;;
39486;SDS011;25173;50.430;18.926;2022-07-23T17:44:08;17.75;;;11.07;;
39486;SDS011;25173;50.430;18.926;2022-07-23T17:47:09;11.57;;;10.38;;
39486;SDS011;25173;50.430;18.926;2022-07-23T17:50:10;17.48;;;11.35;;
39486;SDS011;25173;50.430;18.926;2022-07-23T17:53:11;20.90;;;14.63;;
39486;SDS011;25173;50.430;18.926;2022-07-23T17:56:11;23.50;;;14.68;;
39486;SDS011;25173;50.430;18.926;2022-07-23T17:59:12;17.35;;;13.73;;
39486;SDS011;25173;50.430;18.926;2022-07-23T18:02:13;22.23;;;13.40;;
39486;SDS011;25173;50.430;18.926;2022-07-23T18:05:14;16.35;;;11.88;;